sensor_id;sensor_type;location;lat;lon;timestamp;pressure;altitude;pressure_sealevel;temperature;humidity
59391;BME280;53405;57.012;40.984;2022-08-21T00:00:17;101416.78;;;15.46;61.44
59391;BME280;53405;57.012;40.984;2022-08-21T00:03:06;101396.94;;;15.34;61.38
59391;BME280;53405;57.012;40.984;2022-08-21T00:05:54;101415.13;;;15.45;61.75
59391;BME280;53405;57.012;40.984;2022-08-21T00:08:43;101417.72;;;15.53;61.46
59391;BME280;53405;57.012;40.984;2022-08-21T00:11:32;101410.19;;;15.42;61.47
59391;BME280;53405;57.012;40.984;2022-08-21T00:14:20;101416.19;;;15.36;61.94
59391;BME280;53405;57.012;40.984;2022-08-21T00:17:08;101425.31;;;15.33;62.25
59391;BME280;53405;57.012;40.984;2022-08-21T00:19:56;101406.34;;;15.13;62.66
59391;BME280;53405;57.012;40.984;2022-08-21T00:22:44;101422.25;;;15.13;62.87
59391;BME280;53405;57.012;40.984;2022-08-21T00:25:32;101432.72;;;15.07;63.21
59391;BME280;53405;57.012;40.984;2022-08-21T00:28:20;101417.84;;;14.97;63.84
59391;BME280;53405;57.012;40.984;2022-08-21T00:31:08;101418.34;;;14.93;64.06
59391;BME280;53405;57.012;40.984;2022-08-21T00:33:56;101418.69;;;14.90;64.31
59391;BME280;53405;57.012;40.984;2022-08-21T00:36:44;101422.72;;;14.86;64.87
59391;BME280;53405;57.012;40.984;2022-08-21T00:39:31;101423.91;;;14.75;65.36
59391;BME280;53405;57.012;40.984;2022-08-21T00:42:19;101416.63;;;14.69;65.54
59391;BME280;53405;57.012;40.984;2022-08-21T00:45:09;101425.25;;;14.62;66.11
59391;BME280;53405;57.012;40.984;2022-08-21T00:47:57;101420.59;;;14.56;66.34
59391;BME280;53405;57.012;40.984;2022-08-21T00:51:13;101414.81;;;14.53;66.55
59391;BME280;53405;57.012;40.984;2022-08-21T00:54:02;101419.13;;;14.45;66.68
59391;BME280;53405;57.012;40.984;2022-08-21T00:56:53;101421.28;;;14.42;66.62
59391;BME280;53405;57.012;40.984;2022-08-21T00:59:45;101413.84;;;14.37;67.11
59391;BME280;53405;57.012;40.984;2022-08-21T01:02:35;101415.38;;;14.32;67.21
59391;BME280;53405;57.012;40.984;2022-08-21T01:05:23;101396.50;;;14.18;67.12
59391;BME280;53405;57.012;40.984;2022-08-21T01:08:11;101412.53;;;14.25;67.45
59391;BME280;53405;57.012;40.984;2022-08-21T01:11:01;101416.84;;;14.26;67.47
59391;BME280;53405;57.012;40.984;2022-08-21T01:13:49;101421.34;;;14.25;67.58
59391;BME280;53405;57.012;40.984;2022-08-21T01:16:43;101413.19;;;14.19;67.75
59391;BME280;53405;57.012;40.984;2022-08-21T01:19:31;101412.72;;;14.15;67.77
59391;BME280;53405;57.012;40.984;2022-08-21T01:22:19;101419.00;;;14.14;67.98
59391;BME280;53405;57.012;40.984;2022-08-21T01:25:08;101400.47;;;14.06;67.97
59391;BME280;53405;57.012;40.984;2022-08-21T01:27:57;101410.91;;;14.07;68.24
59391;BME280;53405;57.012;40.984;2022-08-21T01:30:48;101413.88;;;14.04;68.36
59391;BME280;53405;57.012;40.984;2022-08-21T01:33:38;101408.91;;;14.01;68.24
59391;BME280;53405;57.012;40.984;2022-08-21T01:36:26;101407.44;;;13.99;68.62
59391;BME280;53405;57.012;40.984;2022-08-21T01:39:15;101399.16;;;14.02;68.75
59391;BME280;53405;57.012;40.984;2022-08-21T01:42:04;101411.38;;;14.03;68.45
59391;BME280;53405;57.012;40.984;2022-08-21T01:44:52;101409.06;;;14.00;68.59
59391;BME280;53405;57.012;40.984;2022-08-21T01:47:40;101408.75;;;13.95;68.82
59391;BME280;53405;57.012;40.984;2022-08-21T01:50:28;101403.28;;;13.88;68.86
59391;BME280;53405;57.012;40.984;2022-08-21T01:53:16;101400.97;;;13.85;69.19
59391;BME280;53405;57.012;40.984;2022-08-21T01:56:07;101397.16;;;13.79;69.22
59391;BME280;53405;57.012;40.984;2022-08-21T01:58:55;101397.16;;;13.79;69.28
59391;BME280;53405;57.012;40.984;2022-08-21T02:01:42;101395.84;;;13.83;69.06
59391;BME280;53405;57.012;40.984;2022-08-21T02:04:30;101389.03;;;13.81;69.19
59391;BME280;53405;57.012;40.984;2022-08-21T02:07:17;101391.19;;;13.85;68.89
59391;BME280;53405;57.012;40.984;2022-08-21T02:10:07;101390.88;;;13.88;68.64
59391;BME280;53405;57.012;40.984;2022-08-21T02:12:58;101396.97;;;13.89;68.70
59391;BME280;53405;57.012;40.984;2022-08-21T02:15:46;101398.66;;;13.90;68.75
59391;BME280;53405;57.012;40.984;2022-08-21T02:18:34;101404.94;;;13.89;68.84
59391;BME280;53405;57.012;40.984;2022-08-21T02:21:22;101406.75;;;13.88;68.47
59391;BME280;53405;57.012;40.984;2022-08-21T02:24:11;101400.47;;;13.89;68.72
59391;BME280;53405;57.012;40.984;2022-08-21T02:26:58;101406.28;;;13.93;68.58
59391;BME280;53405;57.012;40.984;2022-08-21T02:29:46;101397.84;;;13.89;68.59
59391;BME280;53405;57.012;40.984;2022-08-21T02:32:33;101405.63;;;13.91;68.35
59391;BME280;53405;57.012;40.984;2022-08-21T02:35:21;101409.91;;;13.92;68.30
59391;BME280;53405;57.012;40.984;2022-08-21T02:38:13;101405.78;;;13.98;67.80
59391;BME280;53405;57.012;40.984;2022-08-21T02:41:01;101417.69;;;14.02;67.97
59391;BME280;53405;57.012;40.984;2022-08-21T02:43:49;101413.38;;;14.09;67.41
59391;BME280;53405;57.012;40.984;2022-08-21T02:46:36;101422.00;;;14.11;67.22
59391;BME280;53405;57.012;40.984;2022-08-21T02:49:24;101426.28;;;14.12;67.23
59391;BME280;53405;57.012;40.984;2022-08-21T02:52:11;101418.19;;;14.14;67.09
59391;BME280;53405;57.012;40.984;2022-08-21T02:54:59;101432.25;;;14.14;66.84
59391;BME280;53405;57.012;40.984;2022-08-21T02:57:49;101408.75;;;14.11;66.80
59391;BME280;53405;57.012;40.984;2022-08-21T03:00:37;101423.81;;;14.19;66.72
59391;BME280;53405;57.012;40.984;2022-08-21T03:03:25;101422.16;;;14.18;66.62
59391;BME280;53405;57.012;40.984;2022-08-21T03:06:15;101415.84;;;14.19;66.65
59391;BME280;53405;57.012;40.984;2022-08-21T03:09:03;101425.63;;;14.18;66.84
59391;BME280;53405;57.012;40.984;2022-08-21T03:11:50;101397.66;;;14.07;66.80
59391;BME280;53405;57.012;40.984;2022-08-21T03:14:38;101413.38;;;14.25;66.80
59391;BME280;53405;57.012;40.984;2022-08-21T03:17:26;101419.34;;;14.27;66.38
59391;BME280;53405;57.012;40.984;2022-08-21T03:20:17;101424.44;;;14.37;66.28
59391;BME280;53405;57.012;40.984;2022-08-21T03:23:06;101417.66;;;14.43;65.98
59391;BME280;53405;57.012;40.984;2022-08-21T03:25:54;101424.25;;;14.47;65.90
59391;BME280;53405;57.012;40.984;2022-08-21T03:28:42;101417.94;;;14.56;65.31
59391;BME280;53405;57.012;40.984;2022-08-21T03:31:30;101394.25;;;14.55;65.38
59391;BME280;53405;57.012;40.984;2022-08-21T03:34:18;101411.28;;;14.77;64.87
59391;BME280;53405;57.012;40.984;2022-08-21T03:37:07;101410.44;;;14.85;64.27
59391;BME280;53405;57.012;40.984;2022-08-21T03:39:54;101412.72;;;14.96;63.78
59391;BME280;53405;57.012;40.984;2022-08-21T03:42:42;101422.16;;;14.98;63.56
59391;BME280;53405;57.012;40.984;2022-08-21T03:45:30;101420.84;;;15.03;64.75
59391;BME280;53405;57.012;40.984;2022-08-21T03:48:20;101418.13;;;15.11;64.23
59391;BME280;53405;57.012;40.984;2022-08-21T03:51:08;101421.72;;;15.26;63.41
59391;BME280;53405;57.012;40.984;2022-08-21T03:53:58;101429.09;;;15.39;63.88
59391;BME280;53405;57.012;40.984;2022-08-21T03:56:46;101426.56;;;15.46;63.23
59391;BME280;53405;57.012;40.984;2022-08-21T03:59:33;101424.03;;;15.52;63.05
59391;BME280;53405;57.012;40.984;2022-08-21T04:02:21;101431.75;;;15.62;63.42
59391;BME280;53405;57.012;40.984;2022-08-21T04:05:10;101422.81;;;15.63;63.15
59391;BME280;53405;57.012;40.984;2022-08-21T04:08:00;101427.13;;;15.64;63.11
59391;BME280;53405;57.012;40.984;2022-08-21T04:10:50;101428.56;;;15.75;63.16
59391;BME280;53405;57.012;40.984;2022-08-21T04:13:38;101427.31;;;15.86;62.90
59391;BME280;53405;57.012;40.984;2022-08-21T04:16:27;101427.28;;;15.94;61.87
59391;BME280;53405;57.012;40.984;2022-08-21T04:19:15;101425.19;;;16.04;61.22
59391;BME280;53405;57.012;40.984;2022-08-21T04:22:02;101406.75;;;16.03;60.22
59391;BME280;53405;57.012;40.984;2022-08-21T04:24:50;101435.72;;;16.13;59.61
59391;BME280;53405;57.012;40.984;2022-08-21T04:27:38;101425.78;;;16.15;60.37
59391;BME280;53405;57.012;40.984;2022-08-21T04:30:27;101426.50;;;16.23;61.55
59391;BME280;53405;57.012;40.984;2022-08-21T04:33:15;101421.84;;;16.25;61.19
59391;BME280;53405;57.012;40.984;2022-08-21T04:36:03;101425.06;;;16.36;61.50
59391;BME280;53405;57.012;40.984;2022-08-21T04:38:51;101405.91;;;16.40;60.16
59391;BME280;53405;57.012;40.984;2022-08-21T04:41:38;101440.97;;;16.59;61.04
59391;BME280;53405;57.012;40.984;2022-08-21T04:44:26;101436.66;;;16.73;61.02
59391;BME280;53405;57.012;40.984;2022-08-21T04:47:14;101436.31;;;16.91;58.65
59391;BME280;53405;57.012;40.984;2022-08-21T04:50:01;101439.59;;;16.93;60.19
59391;BME280;53405;57.012;40.984;2022-08-21T04:52:49;101427.69;;;16.89;60.26
59391;BME280;53405;57.012;40.984;2022-08-21T04:55:37;101426.47;;;17.06;57.08
59391;BME280;53405;57.012;40.984;2022-08-21T04:58:26;101424.91;;;17.12;57.88
59391;BME280;53405;57.012;40.984;2022-08-21T05:01:19;101425.38;;;17.15;56.65
59391;BME280;53405;57.012;40.984;2022-08-21T05:04:10;101437.75;;;17.23;56.49
59391;BME280;53405;57.012;40.984;2022-08-21T05:07:02;101430.22;;;17.27;56.56
59391;BME280;53405;57.012;40.984;2022-08-21T05:09:50;101435.59;;;17.33;56.16
59391;BME280;53405;57.012;40.984;2022-08-21T05:12:38;101437.97;;;17.43;55.94
59391;BME280;53405;57.012;40.984;2022-08-21T05:15:27;101436.66;;;17.54;55.57
59391;BME280;53405;57.012;40.984;2022-08-21T05:18:15;101430.00;;;17.65;55.94
59391;BME280;53405;57.012;40.984;2022-08-21T05:21:03;101438.66;;;17.74;55.39
59391;BME280;53405;57.012;40.984;2022-08-21T05:23:52;101431.63;;;17.87;56.07
59391;BME280;53405;57.012;40.984;2022-08-21T05:26:39;101426.16;;;17.89;54.01
59391;BME280;53405;57.012;40.984;2022-08-21T05:29:27;101429.50;;;17.98;56.52
59391;BME280;53405;57.012;40.984;2022-08-21T05:32:18;101427.03;;;18.18;54.83
59391;BME280;53405;57.012;40.984;2022-08-21T05:35:07;101436.50;;;18.27;55.17
59391;BME280;53405;57.012;40.984;2022-08-21T05:37:56;101429.22;;;18.42;55.14
59391;BME280;53405;57.012;40.984;2022-08-21T05:40:44;101404.84;;;18.46;54.08
59391;BME280;53405;57.012;40.984;2022-08-21T05:43:32;101422.56;;;18.60;51.74
59391;BME280;53405;57.012;40.984;2022-08-21T05:46:23;101423.66;;;18.72;51.33
59391;BME280;53405;57.012;40.984;2022-08-21T05:49:11;101424.13;;;18.83;51.70
59391;BME280;53405;57.012;40.984;2022-08-21T05:51:59;101420.94;;;18.94;53.23
59391;BME280;53405;57.012;40.984;2022-08-21T05:54:47;101404.56;;;19.10;51.81
59391;BME280;53405;57.012;40.984;2022-08-21T05:57:34;101411.59;;;19.25;51.35
59391;BME280;53405;57.012;40.984;2022-08-21T06:00:22;101412.03;;;19.35;52.57
59391;BME280;53405;57.012;40.984;2022-08-21T06:03:12;101409.81;;;19.52;51.54
59391;BME280;53405;57.012;40.984;2022-08-21T06:06:00;101398.94;;;19.54;49.38
59391;BME280;53405;57.012;40.984;2022-08-21T06:08:48;101397.50;;;19.64;50.40
59391;BME280;53405;57.012;40.984;2022-08-21T06:11:36;101403.94;;;19.83;50.26
59391;BME280;53405;57.012;40.984;2022-08-21T06:14:24;101403.09;;;19.90;49.85
59391;BME280;53405;57.012;40.984;2022-08-21T06:17:12;101391.59;;;19.89;49.53
59391;BME280;53405;57.012;40.984;2022-08-21T06:20:01;101409.88;;;20.12;50.56
59391;BME280;53405;57.012;40.984;2022-08-21T06:22:49;101403.50;;;20.27;49.24
59391;BME280;53405;57.012;40.984;2022-08-21T06:25:36;101402.00;;;20.44;50.09
59391;BME280;53405;57.012;40.984;2022-08-21T06:28:24;101408.78;;;20.67;47.46
59391;BME280;53405;57.012;40.984;2022-08-21T06:31:18;101409.38;;;20.75;47.47
59391;BME280;53405;57.012;40.984;2022-08-21T06:34:06;101409.94;;;20.84;47.73
59391;BME280;53405;57.012;40.984;2022-08-21T06:36:54;101405.56;;;21.03;47.12
59391;BME280;53405;57.012;40.984;2022-08-21T06:39:41;101389.06;;;21.06;45.74
59391;BME280;53405;57.012;40.984;2022-08-21T06:42:31;101403.03;;;21.15;45.54
59391;BME280;53405;57.012;40.984;2022-08-21T06:45:19;101397.81;;;21.27;45.56
59391;BME280;53405;57.012;40.984;2022-08-21T06:48:07;101391.41;;;21.28;46.52
59391;BME280;53405;57.012;40.984;2022-08-21T06:50:55;101400.84;;;21.37;44.49
59391;BME280;53405;57.012;40.984;2022-08-21T06:53:43;101399.56;;;21.46;45.11
59391;BME280;53405;57.012;40.984;2022-08-21T06:56:31;101406.09;;;21.57;45.34
59391;BME280;53405;57.012;40.984;2022-08-21T06:59:20;101402.72;;;21.69;44.02
59391;BME280;53405;57.012;40.984;2022-08-21T07:02:07;101401.81;;;21.81;44.49
59391;BME280;53405;57.012;40.984;2022-08-21T07:04:55;101386.50;;;21.89;43.48
59391;BME280;53405;57.012;40.984;2022-08-21T07:07:43;101376.28;;;21.97;43.73
59391;BME280;53405;57.012;40.984;2022-08-21T07:10:31;101391.53;;;22.22;42.72
59391;BME280;53405;57.012;40.984;2022-08-21T07:13:19;101386.09;;;22.29;42.33
59391;BME280;53405;57.012;40.984;2022-08-21T07:16:06;101378.22;;;22.34;42.33
59391;BME280;53405;57.012;40.984;2022-08-21T07:18:54;101372.81;;;22.41;41.38
59391;BME280;53405;57.012;40.984;2022-08-21T07:21:41;101392.44;;;22.60;40.90
59391;BME280;53405;57.012;40.984;2022-08-21T07:24:29;101395.47;;;22.63;40.65
59391;BME280;53405;57.012;40.984;2022-08-21T07:27:16;101392.91;;;22.87;40.86
59391;BME280;53405;57.012;40.984;2022-08-21T07:30:05;101387.59;;;22.99;39.91
59391;BME280;53405;57.012;40.984;2022-08-21T07:32:53;101383.72;;;23.13;39.71
59391;BME280;53405;57.012;40.984;2022-08-21T07:35:41;101376.06;;;23.28;39.78
59391;BME280;53405;57.012;40.984;2022-08-21T07:38:28;101372.38;;;23.41;37.85
59391;BME280;53405;57.012;40.984;2022-08-21T07:41:24;101373.53;;;23.45;39.01
59391;BME280;53405;57.012;40.984;2022-08-21T07:44:12;101373.22;;;23.66;39.48
59391;BME280;53405;57.012;40.984;2022-08-21T07:47:01;101372.09;;;23.85;39.64
59391;BME280;53405;57.012;40.984;2022-08-21T07:49:48;101371.53;;;24.07;37.33
59391;BME280;53405;57.012;40.984;2022-08-21T07:52:36;101371.50;;;24.18;36.53
59391;BME280;53405;57.012;40.984;2022-08-21T07:55:24;101376.66;;;24.32;36.40
59391;BME280;53405;57.012;40.984;2022-08-21T07:58:12;101361.69;;;24.36;35.32
59391;BME280;53405;57.012;40.984;2022-08-21T08:00:59;101369.63;;;24.43;34.83
59391;BME280;53405;57.012;40.984;2022-08-21T08:03:47;101371.34;;;24.49;35.84
59391;BME280;53405;57.012;40.984;2022-08-21T08:06:35;101366.06;;;24.66;34.65
59391;BME280;53405;57.012;40.984;2022-08-21T08:09:23;101370.06;;;24.63;33.26
59391;BME280;53405;57.012;40.984;2022-08-21T08:12:11;101355.88;;;24.68;33.26
59391;BME280;53405;57.012;40.984;2022-08-21T08:15:00;101344.28;;;24.67;31.76
59391;BME280;53405;57.012;40.984;2022-08-21T08:17:49;101344.00;;;24.81;33.60
59391;BME280;53405;57.012;40.984;2022-08-21T08:20:37;101353.66;;;25.22;31.37
59391;BME280;53405;57.012;40.984;2022-08-21T08:23:25;101362.78;;;25.50;31.96
59391;BME280;53405;57.012;40.984;2022-08-21T08:26:14;101352.00;;;25.84;30.15
59391;BME280;53405;57.012;40.984;2022-08-21T08:29:02;101367.94;;;26.25;30.20
59391;BME280;53405;57.012;40.984;2022-08-21T08:31:50;101344.03;;;26.33;28.76
59391;BME280;53405;57.012;40.984;2022-08-21T08:34:39;101357.59;;;26.61;29.67
59391;BME280;53405;57.012;40.984;2022-08-21T08:37:27;101347.72;;;26.94;27.64
59391;BME280;53405;57.012;40.984;2022-08-21T08:40:30;101350.00;;;26.80;27.53
59391;BME280;53405;57.012;40.984;2022-08-21T08:43:20;101328.50;;;26.90;28.59
59391;BME280;53405;57.012;40.984;2022-08-21T08:46:15;101346.09;;;27.52;27.93
59391;BME280;53405;57.012;40.984;2022-08-21T08:49:13;101341.16;;;27.82;27.61
59391;BME280;53405;57.012;40.984;2022-08-21T08:52:03;101341.66;;;27.73;28.26
59391;BME280;53405;57.012;40.984;2022-08-21T08:55:11;101343.78;;;27.66;26.98
59391;BME280;53405;57.012;40.984;2022-08-21T08:58:00;101339.78;;;27.79;27.24
59391;BME280;53405;57.012;40.984;2022-08-21T09:00:51;101337.84;;;28.07;27.12
59391;BME280;53405;57.012;40.984;2022-08-21T09:03:40;101332.19;;;28.19;27.32
59391;BME280;53405;57.012;40.984;2022-08-21T09:06:37;101325.53;;;28.42;26.66
59391;BME280;53405;57.012;40.984;2022-08-21T09:12:49;101323.16;;;28.66;25.90
59391;BME280;53405;57.012;40.984;2022-08-21T09:16:00;101314.53;;;28.90;24.38
59391;BME280;53405;57.012;40.984;2022-08-21T09:22:23;101312.91;;;28.73;24.82
59391;BME280;53405;57.012;40.984;2022-08-21T09:28:11;101312.09;;;29.76;24.25
59391;BME280;53405;57.012;40.984;2022-08-21T09:31:06;101301.44;;;30.05;23.04
59391;BME280;53405;57.012;40.984;2022-08-21T09:34:09;101292.81;;;29.87;24.14
59391;BME280;53405;57.012;40.984;2022-08-21T09:36:57;101304.31;;;30.39;23.46
59391;BME280;53405;57.012;40.984;2022-08-21T09:39:45;101311.84;;;30.48;22.52
59391;BME280;53405;57.012;40.984;2022-08-21T09:42:34;101294.97;;;29.90;22.97
59391;BME280;53405;57.012;40.984;2022-08-21T09:45:22;101295.22;;;29.94;22.63
59391;BME280;53405;57.012;40.984;2022-08-21T09:48:21;101293.88;;;29.97;22.59
59391;BME280;53405;57.012;40.984;2022-08-21T09:51:14;101295.22;;;30.59;20.88
59391;BME280;53405;57.012;40.984;2022-08-21T10:00:23;101278.97;;;29.89;20.77
59391;BME280;53405;57.012;40.984;2022-08-21T10:03:20;101283.31;;;29.74;21.70
59391;BME280;53405;57.012;40.984;2022-08-21T10:06:09;101288.72;;;29.95;21.21
59391;BME280;53405;57.012;40.984;2022-08-21T10:09:13;101285.78;;;29.81;20.15
59391;BME280;53405;57.012;40.984;2022-08-21T10:14:58;101287.13;;;29.73;21.65
59391;BME280;53405;57.012;40.984;2022-08-21T10:24:21;101269.78;;;31.97;18.68
59391;BME280;53405;57.012;40.984;2022-08-21T10:27:27;101249.44;;;31.70;18.36
59391;BME280;53405;57.012;40.984;2022-08-21T10:33:46;101263.72;;;31.81;18.42
59391;BME280;53405;57.012;40.984;2022-08-21T10:43:17;101246.56;;;32.62;17.93
59391;BME280;53405;57.012;40.984;2022-08-21T10:55:22;101221.28;;;32.23;19.57
59391;BME280;53405;57.012;40.984;2022-08-21T10:58:14;101234.72;;;32.71;18.74
59391;BME280;53405;57.012;40.984;2022-08-21T11:01:13;101233.47;;;32.96;18.03
59391;BME280;53405;57.012;40.984;2022-08-21T11:04:16;101200.84;;;32.39;17.87
59391;BME280;53405;57.012;40.984;2022-08-21T11:13:12;101211.72;;;32.58;17.97
59391;BME280;53405;57.012;40.984;2022-08-21T11:19:05;101206.88;;;31.55;18.58
59391;BME280;53405;57.012;40.984;2022-08-21T11:25:11;101202.31;;;31.45;18.46
59391;BME280;53405;57.012;40.984;2022-08-21T11:28:15;101209.69;;;31.15;19.27
59391;BME280;53405;57.012;40.984;2022-08-21T11:34:19;101202.81;;;31.23;19.16
59391;BME280;53405;57.012;40.984;2022-08-21T11:47:00;101191.09;;;29.64;21.33
59391;BME280;53405;57.012;40.984;2022-08-21T11:52:46;101197.72;;;30.53;19.59
59391;BME280;53405;57.012;40.984;2022-08-21T11:55:43;101194.94;;;30.92;19.58
59391;BME280;53405;57.012;40.984;2022-08-21T11:58:37;101189.75;;;31.25;19.69
59391;BME280;53405;57.012;40.984;2022-08-21T12:01:32;101190.50;;;31.79;18.55
59391;BME280;53405;57.012;40.984;2022-08-21T12:04:31;101189.38;;;32.23;19.65
59391;BME280;53405;57.012;40.984;2022-08-21T12:07:38;101186.44;;;32.39;18.00
59391;BME280;53405;57.012;40.984;2022-08-21T12:10:34;101178.84;;;31.98;18.37
59391;BME280;53405;57.012;40.984;2022-08-21T12:13:26;101176.25;;;32.06;19.66
59391;BME280;53405;57.012;40.984;2022-08-21T12:16:41;101173.00;;;32.42;19.62
59391;BME280;53405;57.012;40.984;2022-08-21T12:19:33;101177.25;;;33.56;17.53
59391;BME280;53405;57.012;40.984;2022-08-21T12:22:22;101187.06;;;33.85;16.85
59391;BME280;53405;57.012;40.984;2022-08-21T12:25:16;101174.38;;;34.39;16.17
59391;BME280;53405;57.012;40.984;2022-08-21T12:28:08;101174.63;;;34.52;15.88
59391;BME280;53405;57.012;40.984;2022-08-21T12:30:57;101176.31;;;34.39;16.26
59391;BME280;53405;57.012;40.984;2022-08-21T12:33:52;101158.28;;;34.38;16.13
59391;BME280;53405;57.012;40.984;2022-08-21T12:36:48;101166.56;;;33.46;16.75
59391;BME280;53405;57.012;40.984;2022-08-21T12:39:38;101156.91;;;32.27;18.09
59391;BME280;53405;57.012;40.984;2022-08-21T12:42:41;101169.56;;;31.56;18.99
59391;BME280;53405;57.012;40.984;2022-08-21T12:45:37;101159.41;;;30.84;18.85
59391;BME280;53405;57.012;40.984;2022-08-21T12:48:45;101168.53;;;30.24;20.10
59391;BME280;53405;57.012;40.984;2022-08-21T12:51:49;101161.34;;;29.99;21.12
59391;BME280;53405;57.012;40.984;2022-08-21T12:54:41;101157.81;;;30.03;20.59
59391;BME280;53405;57.012;40.984;2022-08-21T12:57:30;101156.91;;;29.63;20.29
59391;BME280;53405;57.012;40.984;2022-08-21T13:00:21;101148.03;;;29.47;20.57
59391;BME280;53405;57.012;40.984;2022-08-21T13:03:10;101146.44;;;29.36;21.50
59391;BME280;53405;57.012;40.984;2022-08-21T13:06:03;101142.63;;;29.32;21.70
59391;BME280;53405;57.012;40.984;2022-08-21T13:08:56;101141.03;;;29.26;20.62
59391;BME280;53405;57.012;40.984;2022-08-21T13:11:47;101137.00;;;28.97;21.16
59391;BME280;53405;57.012;40.984;2022-08-21T13:14:41;101125.91;;;28.78;20.97
59391;BME280;53405;57.012;40.984;2022-08-21T13:17:32;101143.25;;;28.77;21.24
59391;BME280;53405;57.012;40.984;2022-08-21T13:20:25;101148.69;;;28.72;22.70
59391;BME280;53405;57.012;40.984;2022-08-21T13:26:20;101123.22;;;28.47;21.97
59391;BME280;53405;57.012;40.984;2022-08-21T13:29:14;101123.16;;;28.27;21.32
59391;BME280;53405;57.012;40.984;2022-08-21T13:32:04;101131.03;;;28.28;22.08
59391;BME280;53405;57.012;40.984;2022-08-21T13:34:53;101132.66;;;28.24;22.42
59391;BME280;53405;57.012;40.984;2022-08-21T13:37:43;101117.22;;;28.20;23.29
59391;BME280;53405;57.012;40.984;2022-08-21T13:40:50;101129.97;;;28.19;22.37
59391;BME280;53405;57.012;40.984;2022-08-21T13:43:45;101125.88;;;28.11;22.47
59391;BME280;53405;57.012;40.984;2022-08-21T13:46:35;101121.53;;;28.10;22.83
59391;BME280;53405;57.012;40.984;2022-08-21T13:49:33;101112.06;;;28.08;22.13
59391;BME280;53405;57.012;40.984;2022-08-21T13:52:26;101117.22;;;28.20;22.62
59391;BME280;53405;57.012;40.984;2022-08-21T13:55:16;101106.63;;;28.03;22.34
59391;BME280;53405;57.012;40.984;2022-08-21T13:58:04;101113.69;;;27.99;22.96
59391;BME280;53405;57.012;40.984;2022-08-21T14:00:53;101103.84;;;27.87;23.56
59391;BME280;53405;57.012;40.984;2022-08-21T14:03:45;101103.38;;;27.96;24.05
59391;BME280;53405;57.012;40.984;2022-08-21T14:06:37;101101.50;;;27.96;24.27
59391;BME280;53405;57.012;40.984;2022-08-21T14:09:32;101099.56;;;27.91;24.11
59391;BME280;53405;57.012;40.984;2022-08-21T14:12:34;101098.78;;;27.96;23.84
59391;BME280;53405;57.012;40.984;2022-08-21T14:15:27;101079.50;;;27.87;23.90
59391;BME280;53405;57.012;40.984;2022-08-21T14:18:18;101093.63;;;27.94;24.11
59391;BME280;53405;57.012;40.984;2022-08-21T14:21:08;101090.06;;;27.89;23.17
59391;BME280;53405;57.012;40.984;2022-08-21T14:27:08;101104.13;;;27.81;23.29
59391;BME280;53405;57.012;40.984;2022-08-21T14:30:04;101098.13;;;27.68;24.24
59391;BME280;53405;57.012;40.984;2022-08-21T14:32:56;101085.38;;;27.53;24.71
59391;BME280;53405;57.012;40.984;2022-08-21T14:35:44;101090.81;;;27.64;23.43
59391;BME280;53405;57.012;40.984;2022-08-21T14:38:35;101092.13;;;27.56;23.83
59391;BME280;53405;57.012;40.984;2022-08-21T14:41:25;101082.09;;;27.41;24.12
59391;BME280;53405;57.012;40.984;2022-08-21T14:44:16;101087.50;;;27.41;24.74
59391;BME280;53405;57.012;40.984;2022-08-21T14:47:04;101089.66;;;27.39;25.65
59391;BME280;53405;57.012;40.984;2022-08-21T14:49:52;101086.13;;;27.38;25.17
59391;BME280;53405;57.012;40.984;2022-08-21T14:52:41;101088.53;;;27.35;25.25
59391;BME280;53405;57.012;40.984;2022-08-21T14:55:31;101083.09;;;27.30;24.71
59391;BME280;53405;57.012;40.984;2022-08-21T14:58:42;101089.81;;;27.27;25.29
59391;BME280;53405;57.012;40.984;2022-08-21T15:01:44;101090.63;;;27.22;25.49
59391;BME280;53405;57.012;40.984;2022-08-21T15:04:32;101083.00;;;27.14;24.89
59391;BME280;53405;57.012;40.984;2022-08-21T15:07:20;101087.56;;;27.09;25.36
59391;BME280;53405;57.012;40.984;2022-08-21T15:10:08;101089.16;;;26.99;25.39
59391;BME280;53405;57.012;40.984;2022-08-21T15:12:56;101084.81;;;26.93;25.59
59391;BME280;53405;57.012;40.984;2022-08-21T15:15:45;101083.41;;;26.91;25.54
59391;BME280;53405;57.012;40.984;2022-08-21T15:18:33;101086.38;;;26.89;25.95
59391;BME280;53405;57.012;40.984;2022-08-21T15:21:20;101080.13;;;26.83;26.20
59391;BME280;53405;57.012;40.984;2022-08-21T15:24:09;101077.59;;;26.66;27.26
59391;BME280;53405;57.012;40.984;2022-08-21T15:26:59;101078.59;;;26.60;26.77
59391;BME280;53405;57.012;40.984;2022-08-21T15:29:47;101077.72;;;26.49;27.59
59391;BME280;53405;57.012;40.984;2022-08-21T15:32:35;101075.69;;;26.35;27.33
59391;BME280;53405;57.012;40.984;2022-08-21T15:35:22;101075.44;;;26.36;27.85
59391;BME280;53405;57.012;40.984;2022-08-21T15:38:10;101062.34;;;26.18;27.66
59391;BME280;53405;57.012;40.984;2022-08-21T15:40:58;101066.38;;;26.20;28.09
59391;BME280;53405;57.012;40.984;2022-08-21T15:43:48;101069.00;;;26.10;27.52
59391;BME280;53405;57.012;40.984;2022-08-21T15:46:38;101068.34;;;25.98;28.02
59391;BME280;53405;57.012;40.984;2022-08-21T15:49:25;101068.19;;;25.87;28.29
59391;BME280;53405;57.012;40.984;2022-08-21T15:52:15;101075.44;;;25.82;28.70
59391;BME280;53405;57.012;40.984;2022-08-21T15:55:07;101058.84;;;25.68;29.10
59391;BME280;53405;57.012;40.984;2022-08-21T15:57:54;101061.78;;;25.66;29.80